Time,TemperatureF,DewpointF,PressureIn,WindDirection,WindDirectionDegrees,WindSpeedMPH,WindSpeedGustMPH,Humidity,HourlyPrecipIn,Conditions,Clouds,dailyrainin,SoftwareType,DateUTC
2013-07-28 00:04:00,75.5,63.8,29.93,SSW,204,2.0,8.0,67,0.00,,,0.00,Wunderground PWS Mod,2013-07-28 04:04:00,
2013-07-28 00:08:00,75.5,63.3,29.93,SW,226,5.0,8.0,66,0.00,,,0.00,Wunderground PWS Mod,2013-07-28 04:08:00,
2013-07-28 00:10:00,75.6,63.9,29.93,SSW,203,3.0,8.0,67,0.00,,,0.00,Wunderground PWS Mod,2013-07-28 04:10:00,
2013-07-28 00:12:00,75.6,63.9,29.93,SSW,203,3.0,8.0,67,0.00,,,0.00,Wunderground PWS Mod,2013-07-28 04:12:00,
2013-07-28 00:14:00,75.3,63.6,29.93,SW,230,3.0,8.0,67,0.00,,,0.00,Wunderground PWS Mod,2013-07-28 04:14:00,
2013-07-28 00:24:00,75.9,63.7,29.93,SSW,211,1.0,8.0,66,0.00,,,0.00,Wunderground PWS Mod,2013-07-28 04:24:00,
2013-07-28 00:26:00,76.1,63.9,29.93,SSW,203,5.0,8.0,66,0.00,,,0.00,Wunderground PWS Mod,2013-07-28 04:26:00,
2013-07-28 00:34:00,75.6,63.4,29.93,SW,220,1.0,8.0,66,0.00,,,0.00,Wunderground PWS Mod,2013-07-28 04:34:00,
2013-07-28 00:44:00,75.3,63.6,29.93,WSW,245,1.0,8.0,67,0.00,,,0.00,Wunderground PWS Mod,2013-07-28 04:44:00,
2013-07-28 00:46:00,75.6,63.4,29.93,SSW,203,2.0,6.0,66,0.00,,,0.00,Wunderground PWS Mod,2013-07-28 04:46:00,
2013-07-28 00:54:00,77.0,64.3,29.93,SSW,212,3.0,8.0,65,0.00,,,0.00,Wunderground PWS Mod,2013-07-28 04:54:00,
2013-07-28 01:04:00,77.3,64.6,29.93,SW,221,1.0,6.0,65,0.00,,,0.00,Wunderground PWS Mod,2013-07-28 05:04:00,
2013-07-28 01:10:00,76.1,63.5,29.93,SW,225,2.0,5.0,65,0.00,,,0.00,Wunderground PWS Mod,2013-07-28 05:10:00,
2013-07-28 01:12:00,76.1,63.5,29.93,SW,225,2.0,5.0,65,0.00,,,0.00,Wunderground PWS Mod,2013-07-28 05:12:00,
2013-07-28 01:14:00,76.8,64.1,29.93,SSW,208,1.0,6.0,65,0.00,,,0.00,Wunderground PWS Mod,2013-07-28 05:14:00,
2013-07-28 01:24:00,76.4,64.2,29.93,South,187,1.0,6.0,66,0.00,,,0.00,Wunderground PWS Mod,2013-07-28 05:24:00,
2013-07-28 01:34:00,75.7,64.4,29.92,SSW,205,1.0,6.0,68,0.00,,,0.00,Wunderground PWS Mod,2013-07-28 05:34:00,
2013-07-28 01:44:00,76.4,64.2,29.92,SSW,205,1.0,6.0,66,0.00,,,0.00,Wunderground PWS Mod,2013-07-28 05:44:00,
2013-07-28 01:48:00,76.1,64.3,29.93,SSW,203,1.0,4.0,67,0.00,,,0.00,Wunderground PWS Mod,2013-07-28 05:48:00,
2013-07-28 01:54:00,76.0,64.2,29.93,SSW,203,1.0,6.0,67,0.00,,,0.00,Wunderground PWS Mod,2013-07-28 05:54:00,
2013-07-28 02:04:00,75.9,64.2,29.93,WSW,242,1.0,6.0,67,0.00,,,0.00,Wunderground PWS Mod,2013-07-28 06:04:00,
2013-07-28 02:10:00,76.1,64.3,29.93,SSW,203,1.0,4.0,67,0.00,,,0.00,Wunderground PWS Mod,2013-07-28 06:10:00,
2013-07-28 02:12:00,76.1,64.3,29.93,SSW,203,1.0,4.0,67,0.00,,,0.00,Wunderground PWS Mod,2013-07-28 06:12:00,
2013-07-28 02:14:00,75.2,64.3,29.92,SW,222,2.0,6.0,69,0.00,,,0.00,Wunderground PWS Mod,2013-07-28 06:14:00,
2013-07-28 02:24:00,75.8,64.5,29.92,SW,231,1.0,6.0,68,0.00,,,0.00,Wunderground PWS Mod,2013-07-28 06:24:00,
2013-07-28 02:34:00,74.9,64.5,29.92,SSW,200,1.0,6.0,70,0.00,,,0.00,Wunderground PWS Mod,2013-07-28 06:34:00,
2013-07-28 02:44:00,73.9,63.9,29.92,South,169,1.0,6.0,71,0.00,,,0.00,Wunderground PWS Mod,2013-07-28 06:44:00,
2013-07-28 02:46:00,75.6,65.1,29.92,SSW,203,2.0,4.0,70,0.00,,,0.00,Wunderground PWS Mod,2013-07-28 06:46:00,
2013-07-28 02:54:00,73.9,64.3,29.92,South,170,2.0,6.0,72,0.00,,,0.00,Wunderground PWS Mod,2013-07-28 06:54:00,
2013-07-28 03:04:00,74.1,64.1,29.91,South,171,2.0,4.0,71,0.00,,,0.00,Wunderground PWS Mod,2013-07-28 07:04:00,
2013-07-28 03:14:00,74.0,64.0,29.91,South,184,2.0,5.0,71,0.00,,,0.00,Wunderground PWS Mod,2013-07-28 07:14:00,
2013-07-28 03:16:00,74.2,64.2,29.91,South,180,2.0,5.0,71,0.00,,,0.00,Wunderground PWS Mod,2013-07-28 07:16:00,
2013-07-28 03:24:00,73.7,64.1,29.91,South,189,1.0,5.0,72,0.00,,,0.00,Wunderground PWS Mod,2013-07-28 07:24:00,
2013-07-28 03:34:00,74.4,64.0,29.91,South,186,2.0,5.0,70,0.00,,,0.00,Wunderground PWS Mod,2013-07-28 07:34:00,
2013-07-28 03:44:00,73.9,64.3,29.91,South,186,0.0,5.0,72,0.00,,,0.00,Wunderground PWS Mod,2013-07-28 07:44:00,
2013-07-28 03:50:00,74.3,63.1,29.91,South,180,1.0,4.0,68,0.00,,,0.00,Wunderground PWS Mod,2013-07-28 07:50:00,
2013-07-28 03:52:00,74.3,63.1,29.91,South,180,1.0,4.0,68,0.00,,,0.00,Wunderground PWS Mod,2013-07-28 07:52:00,
2013-07-28 03:54:00,74.3,63.9,29.91,South,186,2.0,5.0,70,0.00,,,0.00,Wunderground PWS Mod,2013-07-28 07:54:00,
2013-07-28 04:04:00,75.3,64.0,29.91,SSW,205,2.0,4.0,68,0.00,,,0.00,Wunderground PWS Mod,2013-07-28 08:04:00,
2013-07-28 04:14:00,74.3,63.5,29.91,SSW,198,2.0,4.0,69,0.00,,,0.00,Wunderground PWS Mod,2013-07-28 08:14:00,
2013-07-28 04:16:00,74.3,63.1,29.91,South,180,1.0,4.0,68,0.00,,,0.00,Wunderground PWS Mod,2013-07-28 08:16:00,
2013-07-28 04:24:00,74.2,63.8,29.91,South,182,3.0,4.0,70,0.00,,,0.00,Wunderground PWS Mod,2013-07-28 08:24:00,
2013-07-28 04:34:00,73.0,63.4,29.91,SSE,162,1.0,4.0,72,0.00,,,0.00,Wunderground PWS Mod,2013-07-28 08:34:00,
2013-07-28 04:44:00,73.1,63.5,29.90,SSW,195,1.0,5.0,72,0.00,,,0.00,Wunderground PWS Mod,2013-07-28 08:44:00,
2013-07-28 04:48:00,72.8,63.2,29.91,SSW,203,2.0,7.0,72,0.00,,,0.00,Wunderground PWS Mod,2013-07-28 08:48:00,
2013-07-28 04:54:00,72.5,63.0,29.91,SSW,210,3.0,5.0,72,0.00,,,0.00,Wunderground PWS Mod,2013-07-28 08:54:00,
2013-07-28 05:04:00,72.3,62.8,29.91,SSW,204,2.0,5.0,72,0.00,,,0.00,Wunderground PWS Mod,2013-07-28 09:04:00,
2013-07-28 05:14:00,72.4,63.3,29.91,South,185,3.0,7.0,73,0.00,,,0.00,Wunderground PWS Mod,2013-07-28 09:14:00,
2013-07-28 05:16:00,72.8,63.2,29.91,SSW,203,2.0,7.0,72,0.00,,,0.00,Wunderground PWS Mod,2013-07-28 09:16:00,
2013-07-28 05:24:00,72.1,63.0,29.91,South,190,2.0,7.0,73,0.00,,,0.00,Wunderground PWS Mod,2013-07-28 09:24:00,
2013-07-28 05:34:00,71.9,63.2,29.91,SSW,198,3.0,7.0,74,0.00,,,0.00,Wunderground PWS Mod,2013-07-28 09:34:00,
2013-07-28 05:44:00,71.6,62.9,29.92,South,190,9.0,9.0,74,0.00,,,0.00,Wunderground PWS Mod,2013-07-28 09:44:00,
2013-07-28 05:50:00,71.9,63.2,29.92,SSW,203,3.0,9.0,74,0.00,,,0.00,Wunderground PWS Mod,2013-07-28 09:50:00,
2013-07-28 05:52:00,71.9,63.2,29.92,SSW,203,3.0,9.0,74,0.00,,,0.00,Wunderground PWS Mod,2013-07-28 09:52:00,
2013-07-28 05:54:00,72.0,63.3,29.92,SSW,200,4.0,9.0,74,0.00,,,0.00,Wunderground PWS Mod,2013-07-28 09:54:00,
2013-07-28 06:04:00,72.0,63.3,29.92,South,185,2.0,6.0,74,0.00,,,0.00,Wunderground PWS Mod,2013-07-28 10:04:00,
2013-07-28 06:14:00,71.7,63.4,29.93,South,173,3.0,9.0,75,0.00,,,0.00,Wunderground PWS Mod,2013-07-28 10:14:00,
2013-07-28 06:20:00,71.6,63.3,29.93,South,180,3.0,7.0,75,0.00,,,0.00,Wunderground PWS Mod,2013-07-28 10:20:00,
2013-07-28 06:22:00,71.6,63.3,29.93,South,180,3.0,7.0,75,0.00,,,0.00,Wunderground PWS Mod,2013-07-28 10:22:00,
2013-07-28 06:24:00,71.4,63.1,29.93,SSW,196,3.0,9.0,75,0.00,,,0.00,Wunderground PWS Mod,2013-07-28 10:24:00,
2013-07-28 06:34:00,71.4,63.1,29.93,South,178,3.0,9.0,75,0.00,,,0.00,Wunderground PWS Mod,2013-07-28 10:34:00,
2013-07-28 06:44:00,72.3,63.9,29.93,SSW,196,1.0,9.0,75,0.00,,,0.00,Wunderground PWS Mod,2013-07-28 10:44:00,
2013-07-28 06:46:00,71.6,63.3,29.93,South,180,3.0,7.0,75,0.00,,,0.00,Wunderground PWS Mod,2013-07-28 10:46:00,
2013-07-28 06:54:00,73.0,63.8,29.93,SSW,205,3.0,9.0,73,0.00,,,0.00,Wunderground PWS Mod,2013-07-28 10:54:00,
2013-07-28 07:04:00,73.2,64.0,29.93,SSW,205,3.0,7.0,73,0.00,,,0.00,Wunderground PWS Mod,2013-07-28 11:04:00,
2013-07-28 07:14:00,73.0,63.8,29.93,South,169,2.0,7.0,73,0.00,,,0.00,Wunderground PWS Mod,2013-07-28 11:14:00,
2013-07-28 07:16:00,72.4,63.3,29.93,SSW,203,2.0,5.0,73,0.00,,,0.00,Wunderground PWS Mod,2013-07-28 11:16:00,
2013-07-28 07:24:00,72.3,63.9,29.93,South,188,2.0,7.0,75,0.00,,,0.00,Wunderground PWS Mod,2013-07-28 11:24:00,
2013-07-28 07:34:00,72.4,64.4,29.93,South,186,2.0,7.0,76,0.00,,,0.00,Wunderground PWS Mod,2013-07-28 11:34:00,
2013-07-28 07:44:00,72.8,64.8,29.93,South,173,0.0,7.0,76,0.00,,,0.00,Wunderground PWS Mod,2013-07-28 11:44:00,
2013-07-28 07:46:00,72.7,64.7,29.93,SSW,203,2.0,7.0,76,0.00,,,0.00,Wunderground PWS Mod,2013-07-28 11:46:00,
2013-07-28 07:54:00,73.7,64.9,29.93,SSE,163,0.0,7.0,74,0.00,,,0.00,Wunderground PWS Mod,2013-07-28 11:54:00,
2013-07-28 08:04:00,74.0,64.8,29.93,South,174,2.0,7.0,73,0.00,,,0.00,Wunderground PWS Mod,2013-07-28 12:04:00,
2013-07-28 08:14:00,74.1,65.3,29.93,SSW,196,2.0,7.0,74,0.00,,,0.00,Wunderground PWS Mod,2013-07-28 12:14:00,
2013-07-28 08:16:00,73.2,64.0,29.92,South,180,1.0,5.0,73,0.00,,,0.00,Wunderground PWS Mod,2013-07-28 12:16:00,
2013-07-28 08:24:00,75.2,65.9,29.93,SW,236,2.0,7.0,73,0.00,,,0.00,Wunderground PWS Mod,2013-07-28 12:24:00,
2013-07-28 08:34:00,75.7,65.6,29.92,SSW,198,5.0,7.0,71,0.00,,,0.00,Wunderground PWS Mod,2013-07-28 12:34:00,
2013-07-28 08:44:00,75.6,65.9,29.92,SW,232,3.0,8.0,72,0.00,,,0.00,Wunderground PWS Mod,2013-07-28 12:44:00,
2013-07-28 08:48:00,75.5,66.6,29.92,SW,225,3.0,8.0,74,0.00,,,0.00,Wunderground PWS Mod,2013-07-28 12:48:00,
2013-07-28 08:54:00,75.3,66.0,29.92,SW,224,1.0,8.0,73,0.00,,,0.00,Wunderground PWS Mod,2013-07-28 12:54:00,
2013-07-28 09:04:00,75.6,66.7,29.92,South,188,3.0,8.0,74,0.00,,,0.00,Wunderground PWS Mod,2013-07-28 13:04:00,
2013-07-28 09:14:00,76.0,66.7,29.91,SSW,205,4.0,8.0,73,0.00,,,0.00,Wunderground PWS Mod,2013-07-28 13:14:00,
2013-07-28 09:20:00,76.3,65.8,29.91,SSW,203,4.0,10.0,70,0.00,,,0.00,Wunderground PWS Mod,2013-07-28 13:20:00,
2013-07-28 09:22:00,76.3,65.8,29.91,SSW,203,4.0,10.0,70,0.00,,,0.00,Wunderground PWS Mod,2013-07-28 13:22:00,
2013-07-28 09:24:00,76.4,66.7,29.91,SSW,212,9.0,9.0,72,0.00,,,0.00,Wunderground PWS Mod,2013-07-28 13:24:00,
2013-07-28 09:34:00,77.7,67.1,29.91,West,271,2.0,9.0,70,0.00,,,0.00,Wunderground PWS Mod,2013-07-28 13:34:00,
2013-07-28 09:44:00,78.4,67.4,29.91,WSW,237,4.0,10.0,69,0.00,,,0.00,Wunderground PWS Mod,2013-07-28 13:44:00,
2013-07-28 09:46:00,76.3,65.8,29.91,SSW,203,4.0,10.0,70,0.00,,,0.00,Wunderground PWS Mod,2013-07-28 13:46:00,
2013-07-28 09:54:00,79.7,67.3,29.91,SW,224,0.0,10.0,66,0.00,,,0.00,Wunderground PWS Mod,2013-07-28 13:54:00,
2013-07-28 10:04:00,80.2,67.8,29.91,NW,324,1.0,10.0,66,0.00,,,0.00,Wunderground PWS Mod,2013-07-28 14:04:00,
2013-07-28 10:14:00,80.9,67.6,29.91,West,267,5.0,10.0,64,0.00,,,0.00,Wunderground PWS Mod,2013-07-28 14:14:00,
2013-07-28 10:20:00,79.8,68.3,29.91,SW,225,4.0,10.0,68,0.00,,,0.00,Wunderground PWS Mod,2013-07-28 14:20:00,
2013-07-28 10:22:00,79.8,68.3,29.91,SW,225,4.0,10.0,68,0.00,,,0.00,Wunderground PWS Mod,2013-07-28 14:22:00,
2013-07-28 10:24:00,79.2,66.9,29.91,SW,228,3.0,10.0,66,0.00,,,0.00,Wunderground PWS Mod,2013-07-28 14:24:00,
2013-07-28 10:34:00,78.5,67.1,29.91,SW,228,2.0,10.0,68,0.00,,,0.00,Wunderground PWS Mod,2013-07-28 14:34:00,
2013-07-28 10:44:00,78.2,66.8,29.92,West,276,2.0,10.0,68,0.00,,,0.00,Wunderground PWS Mod,2013-07-28 14:44:00,
2013-07-28 10:48:00,78.6,66.3,29.92,West,270,3.0,10.0,66,0.00,,,0.00,Wunderground PWS Mod,2013-07-28 14:48:00,
2013-07-28 10:54:00,78.7,67.2,29.92,West,267,2.0,10.0,68,0.00,,,0.00,Wunderground PWS Mod,2013-07-28 14:54:00,
2013-07-28 11:04:00,79.9,67.5,29.92,WNW,282,2.0,10.0,66,0.00,,,0.00,Wunderground PWS Mod,2013-07-28 15:04:00,
2013-07-28 11:14:00,80.9,68.0,29.92,SSW,202,3.0,10.0,65,0.00,,,0.00,Wunderground PWS Mod,2013-07-28 15:14:00,
2013-07-28 11:18:00,80.7,68.3,29.92,SSW,203,3.0,7.0,66,0.00,,,0.00,Wunderground PWS Mod,2013-07-28 15:18:00,
2013-07-28 11:24:00,81.0,67.7,29.92,NW,304,4.0,10.0,64,0.00,,,0.00,Wunderground PWS Mod,2013-07-28 15:24:00,
2013-07-28 11:34:00,80.4,68.0,29.92,WSW,256,3.0,10.0,66,0.00,,,0.00,Wunderground PWS Mod,2013-07-28 15:34:00,
2013-07-28 11:44:00,79.4,67.5,29.92,WNW,297,4.0,10.0,67,0.00,,,0.00,Wunderground PWS Mod,2013-07-28 15:44:00,
2013-07-28 11:46:00,80.7,68.3,29.92,SSW,203,3.0,7.0,66,0.00,,,0.00,Wunderground PWS Mod,2013-07-28 15:46:00,
2013-07-28 11:54:00,79.5,67.6,29.92,NNW,334,1.0,10.0,67,0.00,,,0.00,Wunderground PWS Mod,2013-07-28 15:54:00,
2013-07-28 12:04:00,80.6,67.3,29.92,SSW,213,4.0,7.0,64,0.00,,,0.00,Wunderground PWS Mod,2013-07-28 16:04:00,
2013-07-28 12:14:00,81.7,67.4,29.92,WNW,285,5.0,10.0,62,0.00,,,0.00,Wunderground PWS Mod,2013-07-28 16:14:00,
2013-07-28 12:16:00,79.7,66.4,29.91,WNW,293,4.0,10.0,64,0.00,,,0.00,Wunderground PWS Mod,2013-07-28 16:16:00,
2013-07-28 12:24:00,83.0,67.7,29.92,West,260,2.0,10.0,60,0.00,,,0.00,Wunderground PWS Mod,2013-07-28 16:24:00,
2013-07-28 12:34:00,83.1,67.8,29.92,WNW,289,5.0,10.0,60,0.00,,,0.00,Wunderground PWS Mod,2013-07-28 16:34:00,
2013-07-28 12:44:00,82.5,67.2,29.92,SW,231,2.0,10.0,60,0.00,,,0.00,Wunderground PWS Mod,2013-07-28 16:44:00,
2013-07-28 12:46:00,82.2,66.9,29.92,SW,225,3.0,7.0,60,0.00,,,0.00,Wunderground PWS Mod,2013-07-28 16:46:00,
2013-07-28 12:54:00,83.1,68.3,29.93,WNW,297,2.0,10.0,61,0.00,,,0.00,Wunderground PWS Mod,2013-07-28 16:54:00,
2013-07-28 13:04:00,81.7,67.9,29.92,WNW,287,3.0,7.0,63,0.00,,,0.00,Wunderground PWS Mod,2013-07-28 17:04:00,
2013-07-28 13:14:00,81.6,66.8,29.92,WNW,284,1.0,9.0,61,0.00,,,0.00,Wunderground PWS Mod,2013-07-28 17:14:00,
2013-07-28 13:16:00,82.7,68.8,29.92,West,270,3.0,9.0,63,0.00,,,0.00,Wunderground PWS Mod,2013-07-28 17:16:00,
2013-07-28 13:24:00,81.6,66.8,29.92,WNW,286,5.0,9.0,61,0.00,,,0.00,Wunderground PWS Mod,2013-07-28 17:24:00,
2013-07-28 13:34:00,82.9,67.1,29.92,NNW,338,2.0,9.0,59,0.00,,,0.00,Wunderground PWS Mod,2013-07-28 17:34:00,
2013-07-28 13:44:00,84.3,66.4,29.91,WNW,287,5.0,9.0,55,0.00,,,0.00,Wunderground PWS Mod,2013-07-28 17:44:00,
2013-07-28 13:48:00,83.7,66.3,29.91,West,270,3.0,8.0,56,0.00,,,0.00,Wunderground PWS Mod,2013-07-28 17:48:00,
2013-07-28 13:54:00,84.2,65.8,29.92,WSW,256,3.0,9.0,54,0.00,,,0.00,Wunderground PWS Mod,2013-07-28 17:54:00,
2013-07-28 14:04:00,83.1,65.8,29.91,WSW,257,3.0,8.0,56,0.00,,,0.00,Wunderground PWS Mod,2013-07-28 18:04:00,
2013-07-28 14:14:00,84.0,66.6,29.91,SE,140,2.0,8.0,56,0.00,,,0.00,Wunderground PWS Mod,2013-07-28 18:14:00,
2013-07-28 14:18:00,85.0,62.5,29.89,SW,225,2.0,7.0,47,0.00,,,0.00,Wunderground PWS Mod,2013-07-28 18:18:00,
2013-07-28 14:24:00,86.2,64.2,29.90,South,170,1.0,8.0,48,0.00,,,0.00,Wunderground PWS Mod,2013-07-28 18:24:00,
2013-07-28 14:34:00,87.0,63.7,29.90,SW,218,4.0,8.0,46,0.00,,,0.00,Wunderground PWS Mod,2013-07-28 18:34:00,
2013-07-28 14:44:00,85.7,63.8,29.89,SW,217,3.0,8.0,48,0.00,,,0.00,Wunderground PWS Mod,2013-07-28 18:44:00,
2013-07-28 14:50:00,86.4,62.5,29.89,SW,225,3.0,9.0,45,0.00,,,0.00,Wunderground PWS Mod,2013-07-28 18:50:00,
2013-07-28 14:52:00,86.4,62.5,29.89,SW,225,3.0,9.0,45,0.00,,,0.00,Wunderground PWS Mod,2013-07-28 18:52:00,
2013-07-28 14:54:00,86.7,64.1,29.89,South,174,7.0,8.0,47,0.00,,,0.00,Wunderground PWS Mod,2013-07-28 18:54:00,
2013-07-28 15:04:00,87.4,64.1,29.89,SSE,147,2.0,7.0,46,0.00,,,0.00,Wunderground PWS Mod,2013-07-28 19:04:00,
2013-07-28 15:14:00,88.6,63.9,29.89,South,185,4.0,9.0,44,0.00,,,0.00,Wunderground PWS Mod,2013-07-28 19:14:00,
2013-07-28 15:20:00,87.1,65.0,29.88,SSW,203,3.0,8.0,48,0.00,,,0.00,Wunderground PWS Mod,2013-07-28 19:20:00,
2013-07-28 15:22:00,87.1,65.0,29.88,SSW,203,3.0,8.0,48,0.00,,,0.00,Wunderground PWS Mod,2013-07-28 19:22:00,
2013-07-28 15:24:00,86.2,63.6,29.89,SSW,206,2.0,9.0,47,0.00,,,0.00,Wunderground PWS Mod,2013-07-28 19:24:00,
2013-07-28 15:34:00,85.8,65.0,29.89,SE,139,5.0,9.0,50,0.00,,,0.00,Wunderground PWS Mod,2013-07-28 19:34:00,
2013-07-28 15:46:00,83.2,65.4,29.89,SE,144,6.0,9.0,55,0.00,,,0.00,Wunderground PWS Mod,2013-07-28 19:46:00,
2013-07-28 15:48:00,83.5,66.2,29.89,SE,135,4.0,9.0,56,0.00,,,0.00,Wunderground PWS Mod,2013-07-28 19:48:00,
2013-07-28 15:54:00,82.0,65.3,29.89,ESE,109,2.0,9.0,57,0.00,,,0.00,Wunderground PWS Mod,2013-07-28 19:54:00,
2013-07-28 16:04:00,82.3,65.0,29.89,SSE,156,1.0,8.0,56,0.00,,,0.00,Wunderground PWS Mod,2013-07-28 20:04:00,
2013-07-28 16:14:00,83.1,65.3,29.89,SSE,153,5.0,9.0,55,0.00,,,0.00,Wunderground PWS Mod,2013-07-28 20:14:00,
2013-07-28 16:18:00,82.8,65.0,29.88,SE,135,3.0,7.0,55,0.00,,,0.00,Wunderground PWS Mod,2013-07-28 20:18:00,
2013-07-28 16:24:00,82.9,65.1,29.88,SE,143,5.0,9.0,55,0.00,,,0.00,Wunderground PWS Mod,2013-07-28 20:24:00,
2013-07-28 16:34:00,83.0,65.2,29.88,SSE,153,3.0,9.0,55,0.00,,,0.00,Wunderground PWS Mod,2013-07-28 20:34:00,
2013-07-28 16:44:00,84.1,65.1,29.89,SSW,198,1.0,9.0,53,0.00,,,0.00,Wunderground PWS Mod,2013-07-28 20:44:00,
2013-07-28 16:50:00,84.3,62.5,29.88,SSW,203,2.0,5.0,48,0.00,,,0.00,Wunderground PWS Mod,2013-07-28 20:50:00,
2013-07-28 16:52:00,84.3,62.5,29.88,SSW,203,2.0,5.0,48,0.00,,,0.00,Wunderground PWS Mod,2013-07-28 20:52:00,
2013-07-28 16:54:00,85.1,66.0,29.89,North,0,1.0,9.0,53,0.00,,,0.00,Wunderground PWS Mod,2013-07-28 20:54:00,
2013-07-28 17:04:00,86.7,64.7,29.88,North,2,1.0,7.0,48,0.00,,,0.00,Wunderground PWS Mod,2013-07-28 21:04:00,
2013-07-28 17:10:00,84.3,62.5,29.88,SSW,203,2.0,5.0,48,0.00,,,0.00,Wunderground PWS Mod,2013-07-28 21:10:00,
2013-07-28 17:12:00,84.3,62.5,29.88,SSW,203,2.0,5.0,48,0.00,,,0.00,Wunderground PWS Mod,2013-07-28 21:12:00,
2013-07-28 17:14:00,87.4,67.1,29.89,SSE,157,2.0,7.0,51,0.00,,,0.00,Wunderground PWS Mod,2013-07-28 21:14:00,
2013-07-28 17:24:00,83.8,65.9,29.88,SE,130,5.0,7.0,55,0.00,,,0.00,Wunderground PWS Mod,2013-07-28 21:24:00,
2013-07-28 17:34:00,82.8,65.5,29.89,ESE,114,2.0,7.0,56,0.00,,,0.00,Wunderground PWS Mod,2013-07-28 21:34:00,
2013-07-28 17:44:00,84.1,65.7,29.89,SSE,148,2.0,8.0,54,0.00,,,0.00,Wunderground PWS Mod,2013-07-28 21:44:00,
2013-07-28 17:46:00,85.6,68.1,29.89,SE,135,3.0,8.0,56,0.00,,,0.00,Wunderground PWS Mod,2013-07-28 21:46:00,
2013-07-28 17:54:00,85.8,64.4,29.89,North,0,3.0,8.0,49,0.00,,,0.00,Wunderground PWS Mod,2013-07-28 21:54:00,
2013-07-28 18:04:00,85.3,63.4,29.89,NNW,344,1.0,8.0,48,0.00,,,0.00,Wunderground PWS Mod,2013-07-28 22:04:00,
2013-07-28 18:14:00,85.1,63.2,29.90,WNW,299,2.0,8.0,48,0.00,,,0.00,Wunderground PWS Mod,2013-07-28 22:14:00,
2013-07-28 18:16:00,84.6,62.7,29.89,SSE,158,2.0,4.0,48,0.00,,,0.00,Wunderground PWS Mod,2013-07-28 22:16:00,
2013-07-28 18:24:00,85.1,63.2,29.89,North,6,1.0,8.0,48,0.00,,,0.00,Wunderground PWS Mod,2013-07-28 22:24:00,
2013-07-28 18:34:00,84.3,64.8,29.89,North,6,1.0,8.0,52,0.00,,,0.00,Wunderground PWS Mod,2013-07-28 22:34:00,
2013-07-28 18:44:00,82.5,66.2,29.88,SE,126,1.0,8.0,58,0.00,,,0.00,Wunderground PWS Mod,2013-07-28 22:44:00,
2013-07-28 18:50:00,82.9,67.6,29.89,SE,135,2.0,6.0,60,0.00,,,0.00,Wunderground PWS Mod,2013-07-28 22:50:00,
2013-07-28 18:52:00,82.9,67.6,29.89,SE,135,2.0,6.0,60,0.00,,,0.00,Wunderground PWS Mod,2013-07-28 22:52:00,
2013-07-28 18:54:00,82.4,67.1,29.88,SE,126,1.0,8.0,60,0.00,,,0.00,Wunderground PWS Mod,2013-07-28 22:54:00,
2013-07-28 19:04:00,81.5,66.8,29.89,SE,132,3.0,5.0,61,0.00,,,0.00,Wunderground PWS Mod,2013-07-28 23:04:00,
2013-07-28 19:14:00,79.9,67.5,29.90,SE,128,3.0,6.0,66,0.00,,,0.00,Wunderground PWS Mod,2013-07-28 23:14:00,
2013-07-28 19:18:00,79.9,68.4,29.91,SE,135,3.0,6.0,68,0.00,,,0.00,Wunderground PWS Mod,2013-07-28 23:18:00,
2013-07-28 19:24:00,79.4,67.0,29.91,SE,133,3.0,6.0,66,0.00,,,0.00,Wunderground PWS Mod,2013-07-28 23:24:00,
2013-07-28 19:34:00,78.9,67.4,29.91,SE,138,2.0,6.0,68,0.00,,,0.00,Wunderground PWS Mod,2013-07-28 23:34:00,
2013-07-28 19:44:00,79.5,67.6,29.92,SSE,147,3.0,6.0,67,0.00,,,0.00,Wunderground PWS Mod,2013-07-28 23:44:00,
2013-07-28 19:46:00,79.9,68.4,29.91,SE,135,3.0,6.0,68,0.00,,,0.00,Wunderground PWS Mod,2013-07-28 23:46:00,
2013-07-28 19:54:00,79.1,67.6,29.92,SSE,147,1.0,6.0,68,0.00,,,0.00,Wunderground PWS Mod,2013-07-28 23:54:00,
2013-07-28 20:04:00,79.1,67.6,29.92,SE,143,3.0,6.0,68,0.00,,,0.00,Wunderground PWS Mod,2013-07-29 00:04:00,
2013-07-28 20:14:00,78.2,67.6,29.91,SE,144,4.0,6.0,70,0.00,,,0.00,Wunderground PWS Mod,2013-07-29 00:14:00,
2013-07-28 20:16:00,79.2,67.7,29.92,SE,135,3.0,6.0,68,0.00,,,0.00,Wunderground PWS Mod,2013-07-29 00:16:00,
2013-07-28 20:24:00,78.3,68.1,29.91,South,169,2.0,6.0,71,0.00,,,0.00,Wunderground PWS Mod,2013-07-29 00:24:00,
2013-07-28 20:34:00,77.8,67.6,29.92,SE,143,6.0,6.0,71,0.00,,,0.00,Wunderground PWS Mod,2013-07-29 00:34:00,
2013-07-28 20:44:00,77.6,67.4,29.92,SSW,208,4.0,7.0,71,0.00,,,0.00,Wunderground PWS Mod,2013-07-29 00:44:00,
2013-07-28 20:50:00,78.0,66.6,29.91,SSE,158,2.0,7.0,68,0.00,,,0.00,Wunderground PWS Mod,2013-07-29 00:50:00,
2013-07-28 20:52:00,78.0,66.6,29.91,SSE,158,2.0,7.0,68,0.00,,,0.00,Wunderground PWS Mod,2013-07-29 00:52:00,
2013-07-28 20:54:00,78.5,67.5,29.92,SSE,167,1.0,7.0,69,0.00,,,0.00,Wunderground PWS Mod,2013-07-29 00:54:00,
2013-07-28 21:04:00,78.7,67.2,29.92,South,175,2.0,7.0,68,0.00,,,0.00,Wunderground PWS Mod,2013-07-29 01:04:00,
2013-07-28 21:14:00,78.1,67.5,29.92,SSE,159,1.0,7.0,70,0.00,,,0.00,Wunderground PWS Mod,2013-07-29 01:14:00,
2013-07-28 21:20:00,78.1,67.9,29.93,SSE,158,2.0,4.0,71,0.00,,,0.00,Wunderground PWS Mod,2013-07-29 01:20:00,
2013-07-28 21:22:00,78.1,67.9,29.93,SSE,158,2.0,4.0,71,0.00,,,0.00,Wunderground PWS Mod,2013-07-29 01:22:00,
2013-07-28 21:24:00,77.7,67.1,29.93,SSE,156,2.0,7.0,70,0.00,,,0.00,Wunderground PWS Mod,2013-07-29 01:24:00,
2013-07-28 21:34:00,76.8,66.7,29.94,South,190,3.0,7.0,71,0.00,,,0.00,Wunderground PWS Mod,2013-07-29 01:34:00,
2013-07-28 21:44:00,77.5,66.9,29.94,SSW,205,2.0,7.0,70,0.00,,,0.00,Wunderground PWS Mod,2013-07-29 01:44:00,
2013-07-28 21:48:00,77.6,67.0,29.94,SSW,203,2.0,5.0,70,0.00,,,0.00,Wunderground PWS Mod,2013-07-29 01:48:00,
2013-07-28 21:54:00,78.1,67.1,29.94,SW,215,3.0,7.0,69,0.00,,,0.00,Wunderground PWS Mod,2013-07-29 01:54:00,
2013-07-28 22:04:00,77.7,67.1,29.94,SSW,201,3.0,4.0,70,0.00,,,0.00,Wunderground PWS Mod,2013-07-29 02:04:00,
2013-07-28 22:12:00,77.6,67.0,29.94,SSW,203,2.0,5.0,70,0.00,,,0.00,Wunderground PWS Mod,2013-07-29 02:12:00,
2013-07-28 22:14:00,76.8,67.1,29.94,SW,214,5.0,5.0,72,0.00,,,0.00,Wunderground PWS Mod,2013-07-29 02:14:00,
2013-07-28 22:24:00,76.6,67.3,29.95,West,273,0.0,5.0,73,0.00,,,0.00,Wunderground PWS Mod,2013-07-29 02:24:00,
2013-07-28 22:38:00,76.0,67.1,29.95,West,272,0.0,5.0,74,0.00,,,0.00,Wunderground PWS Mod,2013-07-29 02:38:00,
2013-07-28 22:44:00,76.1,67.6,29.96,West,272,2.0,7.0,75,0.00,,,0.00,Wunderground PWS Mod,2013-07-29 02:44:00,
2013-07-28 22:48:00,77.5,65.7,29.95,West,270,1.0,3.0,67,0.00,,,0.00,Wunderground PWS Mod,2013-07-29 02:48:00,
2013-07-28 22:54:00,79.3,68.2,29.97,NNE,27,1.0,7.0,69,0.00,,,0.00,Wunderground PWS Mod,2013-07-29 02:54:00,
2013-07-28 23:04:00,80.0,68.1,29.96,ENE,74,2.0,7.0,67,0.00,,,0.00,Wunderground PWS Mod,2013-07-29 03:04:00,
2013-07-28 23:14:00,79.1,67.2,29.96,WNW,298,1.0,7.0,67,0.00,,,0.00,Wunderground PWS Mod,2013-07-29 03:14:00,
2013-07-28 23:18:00,78.4,67.8,29.97,North,0,1.0,3.0,70,0.00,,,0.00,Wunderground PWS Mod,2013-07-29 03:18:00,
2013-07-28 23:28:00,77.3,66.7,29.97,North,0,1.0,7.0,70,0.00,,,0.00,Wunderground PWS Mod,2013-07-29 03:28:00,
2013-07-28 23:34:00,77.6,66.6,29.97,WNW,296,3.0,7.0,69,0.00,,,0.00,Wunderground PWS Mod,2013-07-29 03:34:00,
2013-07-28 23:44:00,75.3,66.0,29.97,NW,310,3.0,7.0,73,0.00,,,0.00,Wunderground PWS Mod,2013-07-29 03:44:00,
2013-07-28 23:50:00,75.4,66.9,29.98,WNW,293,2.0,5.0,75,0.00,,,0.00,Wunderground PWS Mod,2013-07-29 03:50:00,
2013-07-28 23:52:00,75.4,66.9,29.98,WNW,293,2.0,5.0,75,0.00,,,0.00,Wunderground PWS Mod,2013-07-29 03:52:00,
2013-07-28 23:54:00,74.4,65.6,29.98,NW,304,4.0,7.0,74,0.00,,,0.00,Wunderground PWS Mod,2013-07-29 03:54:00,